createdAt,value
2018-11-06T00:00:00.346Z,60.80
2018-11-06T00:02:28.960Z,58.73
2018-11-06T00:05:02.606Z,55.47
2018-11-06T00:07:31.157Z,56.77
2018-11-06T00:09:59.766Z,58.40
2018-11-06T00:12:28.218Z,55.60
2018-11-06T00:15:00.312Z,57.83
2018-11-06T00:17:28.776Z,53.20
2018-11-06T00:19:57.346Z,59.13
2018-11-06T00:22:25.886Z,60.27
2018-11-06T00:24:54.340Z,56.73
2018-11-06T00:27:22.870Z,55.90
2018-11-06T00:29:51.879Z,56.67
2018-11-06T00:32:20.274Z,58.17
2018-11-06T00:34:48.800Z,56.23
2018-11-06T00:37:17.224Z,56.53
2018-11-06T00:39:45.675Z,58.33
2018-11-06T00:42:14.106Z,60.23
2018-11-06T00:44:42.528Z,56.77
2018-11-06T00:47:11.064Z,59.67
2018-11-06T00:49:39.515Z,53.23
2018-11-06T00:52:07.870Z,62.47
2018-11-06T00:54:36.267Z,53.97
2018-11-06T00:57:04.835Z,57.47
2018-11-06T00:59:33.275Z,55.87
2018-11-06T01:02:01.692Z,53.17
2018-11-06T01:04:30.112Z,61.40
2018-11-06T01:06:58.550Z,55.50
2018-11-06T01:09:27.041Z,52.83
2018-11-06T01:11:55.460Z,51.77
2018-11-06T01:14:24.235Z,47.13
2018-11-06T01:16:52.785Z,49.47
2018-11-06T01:19:21.357Z,51.07
2018-11-06T01:21:49.861Z,50.53
2018-11-06T01:24:18.358Z,46.43
2018-11-06T01:26:46.838Z,49.37
2018-11-06T01:29:15.338Z,46.57
2018-11-06T01:31:43.858Z,48.13
2018-11-06T01:34:12.326Z,46.30
2018-11-06T01:36:40.780Z,50.93
2018-11-06T01:39:10.025Z,44.73
2018-11-06T01:41:38.441Z,42.90
2018-11-06T01:44:06.901Z,41.37
2018-11-06T01:46:35.330Z,42.00
2018-11-06T01:49:03.807Z,36.83
2018-11-06T01:51:32.205Z,44.53
2018-11-06T01:54:00.605Z,37.90
2018-11-06T01:56:29.015Z,40.03
2018-11-06T01:58:57.525Z,39.10
2018-11-06T02:01:25.931Z,38.43
2018-11-06T02:03:55.242Z,37.93
2018-11-06T02:06:23.682Z,38.67
2018-11-06T02:08:52.135Z,37.33
2018-11-06T02:11:20.673Z,36.13
2018-11-06T02:13:49.200Z,37.00
2018-11-06T02:16:17.670Z,36.27
2018-11-06T02:18:46.122Z,30.50
2018-11-06T02:21:14.592Z,31.50
2018-11-06T02:23:43.059Z,34.97
2018-11-06T02:26:11.522Z,37.20
2018-11-06T02:28:39.964Z,33.40
2018-11-06T02:31:08.440Z,31.67
2018-11-06T02:33:36.841Z,33.17
2018-11-06T02:36:05.523Z,29.50
2018-11-06T02:38:33.972Z,37.17
2018-11-06T02:41:02.413Z,27.73
2018-11-06T02:43:30.823Z,34.57
2018-11-06T02:45:59.279Z,29.90
2018-11-06T02:48:27.733Z,29.77
2018-11-06T02:50:56.164Z,33.07
2018-11-06T02:53:24.583Z,31.57
2018-11-06T02:55:53.141Z,33.77
2018-11-06T02:58:21.479Z,34.73
2018-11-06T03:00:49.914Z,35.10
2018-11-06T03:03:18.362Z,35.80
2018-11-06T03:05:46.781Z,31.87
2018-11-06T03:08:15.223Z,33.03
2018-11-06T03:10:43.680Z,36.60
2018-11-06T03:13:12.101Z,32.80
2018-11-06T03:15:40.561Z,27.13
2018-11-06T03:18:09.002Z,33.00
2018-11-06T03:20:37.425Z,29.53
2018-11-06T03:23:05.865Z,28.77
2018-11-06T03:25:34.287Z,26.37
2018-11-06T03:28:03.181Z,29.70
2018-11-06T03:30:31.663Z,31.30
2018-11-06T03:33:00.101Z,29.87
2018-11-06T03:35:28.562Z,34.10
2018-11-06T03:37:57.016Z,26.53
2018-11-06T03:40:25.446Z,26.13
2018-11-06T03:42:53.845Z,31.67
2018-11-06T03:45:22.323Z,30.13
2018-11-06T03:47:50.755Z,28.43
2018-11-06T03:50:19.189Z,28.33
2018-11-06T03:52:47.613Z,28.90
2018-11-06T03:55:16.036Z,28.80
2018-11-06T03:57:44.497Z,30.97
2018-11-06T04:00:14.894Z,26.90
2018-11-06T04:02:43.982Z,31.53
2018-11-06T04:05:12.785Z,28.63
2018-11-06T04:07:41.205Z,28.87
2018-11-06T04:10:10.673Z,31.97
2018-11-06T04:12:39.861Z,27.70
2018-11-06T04:15:08.706Z,29.53
2018-11-06T04:17:37.268Z,30.90
2018-11-06T04:20:06.372Z,34.83
2018-11-06T04:22:34.800Z,33.00
2018-11-06T04:25:03.319Z,29.40
2018-11-06T04:27:31.733Z,29.00
2018-11-06T04:30:00.277Z,26.83
2018-11-06T04:32:28.724Z,26.93
2018-11-06T04:34:57.146Z,32.27
2018-11-06T04:37:25.584Z,30.97
2018-11-06T04:39:53.984Z,26.83
2018-11-06T04:42:22.410Z,26.83
2018-11-06T04:44:50.825Z,28.87
2018-11-06T04:47:19.276Z,26.17
2018-11-06T04:49:47.685Z,28.33
2018-11-06T04:52:16.080Z,28.20
2018-11-06T04:54:44.476Z,28.43
2018-11-06T04:57:12.909Z,27.57
2018-11-06T04:59:41.337Z,28.07
2018-11-06T05:02:09.921Z,26.13
2018-11-06T05:04:38.265Z,30.60
2018-11-06T05:07:06.697Z,26.37
2018-11-06T05:09:35.118Z,26.43
2018-11-06T05:12:03.557Z,25.27
2018-11-06T05:14:32.001Z,29.53
2018-11-06T05:17:00.477Z,26.37
2018-11-06T05:19:28.918Z,27.50
2018-11-06T05:21:57.323Z,28.00
2018-11-06T05:24:25.764Z,28.03
2018-11-06T05:26:54.210Z,24.80
2018-11-06T05:29:22.648Z,23.77
2018-11-06T05:31:51.070Z,26.70
2018-11-06T05:34:19.498Z,31.17
2018-11-06T05:36:47.965Z,31.17
2018-11-06T05:39:16.449Z,23.33
2018-11-06T05:41:44.865Z,26.67
2018-11-06T05:44:13.272Z,24.43
2018-11-06T05:46:41.720Z,27.07
2018-11-06T05:49:10.165Z,24.17
2018-11-06T05:51:38.640Z,21.17
2018-11-06T05:54:07.123Z,25.77
2018-11-06T05:56:35.523Z,22.90
2018-11-06T05:59:04.206Z,24.30
2018-11-06T06:01:32.672Z,24.10
2018-11-06T06:04:01.119Z,24.27
2018-11-06T06:06:29.551Z,27.23
2018-11-06T06:08:57.972Z,24.33
2018-11-06T06:11:26.702Z,23.13
2018-11-06T06:13:55.131Z,23.40
2018-11-06T06:16:23.566Z,28.70
2018-11-06T06:18:52.024Z,23.57
2018-11-06T06:21:20.526Z,23.57
2018-11-06T06:23:48.954Z,21.70
2018-11-06T06:26:17.441Z,22.00
2018-11-06T06:28:45.839Z,27.27
2018-11-06T06:31:14.252Z,21.40
2018-11-06T06:33:42.673Z,26.60
2018-11-06T06:36:11.151Z,25.20
2018-11-06T06:38:39.627Z,19.43
2018-11-06T06:41:08.036Z,23.00
2018-11-06T06:43:36.486Z,23.17
2018-11-06T06:46:04.990Z,24.07
2018-11-06T06:48:33.380Z,23.57
2018-11-06T06:51:01.803Z,21.67
2018-11-06T06:53:30.225Z,28.43
2018-11-06T06:55:58.646Z,25.63
2018-11-06T06:58:27.122Z,24.87
2018-11-06T07:00:55.555Z,23.50
2018-11-06T07:03:23.986Z,23.90
2018-11-06T07:05:52.422Z,24.00
2018-11-06T07:08:20.863Z,26.10
2018-11-06T07:10:49.284Z,26.03
2018-11-06T07:13:17.703Z,26.37
2018-11-06T07:15:46.132Z,24.23
2018-11-06T07:18:14.564Z,24.33
2018-11-06T07:20:43.032Z,24.33
2018-11-06T07:23:11.456Z,31.07
2018-11-06T07:25:39.869Z,24.33
2018-11-06T07:28:08.341Z,23.13
2018-11-06T07:30:36.758Z,33.07
2018-11-06T07:33:05.316Z,33.77
2018-11-06T07:35:33.946Z,28.00
2018-11-06T07:38:02.234Z,26.07
2018-11-06T07:40:30.740Z,34.33
2018-11-06T07:42:59.158Z,25.93
2018-11-06T07:45:27.608Z,29.17
2018-11-06T07:47:56.033Z,28.43
2018-11-06T07:50:24.546Z,25.53
2018-11-06T07:52:52.977Z,29.67
2018-11-06T07:55:21.408Z,30.47
2018-11-06T07:57:49.830Z,30.63
2018-11-06T08:00:22.797Z,39.07
2018-11-06T08:02:51.578Z,25.97
2018-11-06T08:05:20.212Z,26.73
2018-11-06T08:07:49.446Z,30.90
2018-11-06T08:10:17.926Z,34.03
2018-11-06T08:12:47.807Z,30.57
2018-11-06T08:15:16.341Z,27.33
2018-11-06T08:17:45.384Z,27.23
2018-11-06T08:20:13.978Z,33.40
2018-11-06T08:22:42.410Z,31.07
2018-11-06T08:25:12.166Z,34.10
2018-11-06T08:27:41.649Z,30.83
2018-11-06T08:30:11.395Z,30.17
2018-11-06T08:32:40.425Z,24.97
2018-11-06T08:35:10.534Z,29.43
2018-11-06T08:37:38.928Z,28.23
2018-11-06T08:40:08.091Z,26.23
2018-11-06T08:42:36.669Z,32.47
2018-11-06T08:45:06.521Z,28.23
2018-11-06T08:47:34.942Z,27.03
2018-11-06T08:50:03.561Z,37.00
2018-11-06T08:52:32.077Z,32.57
2018-11-06T08:55:00.588Z,26.00
2018-11-06T08:57:29.120Z,32.00
2018-11-06T08:59:57.579Z,26.00
2018-11-06T09:02:26.142Z,34.23
2018-11-06T09:04:54.560Z,27.40
2018-11-06T09:07:23.021Z,32.93
2018-11-06T09:09:51.451Z,27.97
2018-11-06T09:12:19.962Z,28.40
2018-11-06T09:14:48.439Z,37.13
2018-11-06T09:17:16.888Z,28.97
2018-11-06T09:19:45.370Z,28.57
2018-11-06T09:22:13.803Z,33.47
2018-11-06T09:24:42.252Z,26.73
2018-11-06T09:27:10.683Z,25.97
2018-11-06T09:29:39.317Z,29.17
2018-11-06T09:32:07.902Z,32.50
2018-11-06T09:34:36.416Z,25.10
2018-11-06T09:37:04.863Z,32.93
2018-11-06T09:39:33.299Z,26.13
2018-11-06T09:42:01.752Z,26.47
2018-11-06T09:44:30.173Z,24.20
2018-11-06T09:46:58.705Z,28.30
2018-11-06T09:49:27.214Z,23.83
2018-11-06T09:51:55.625Z,31.17
2018-11-06T09:54:24.136Z,21.97
2018-11-06T09:56:52.568Z,25.80
2018-11-06T09:59:20.987Z,22.67
2018-11-06T10:01:49.506Z,24.90
2018-11-06T10:04:18.096Z,22.23
2018-11-06T10:06:46.711Z,23.00
2018-11-06T10:09:15.040Z,28.70
2018-11-06T10:11:43.490Z,31.30
2018-11-06T10:14:11.900Z,20.93
2018-11-06T10:16:40.332Z,26.90
2018-11-06T10:19:08.791Z,22.93
2018-11-06T10:21:37.236Z,20.77
2018-11-06T10:24:06.158Z,21.10
2018-11-06T10:26:34.745Z,25.00
2018-11-06T10:29:03.199Z,27.13
2018-11-06T10:31:31.671Z,21.63
2018-11-06T10:34:00.124Z,21.43
2018-11-06T10:36:28.618Z,19.07
2018-11-06T10:38:57.048Z,24.73
2018-11-06T10:41:25.491Z,18.33
2018-11-06T10:43:53.943Z,19.03
2018-11-06T10:46:22.354Z,17.90
2018-11-06T10:48:50.794Z,16.80
2018-11-06T10:51:19.189Z,20.00
2018-11-06T10:53:47.604Z,18.50
2018-11-06T10:56:16.028Z,16.10
2018-11-06T10:58:44.459Z,18.70
2018-11-06T11:01:18.107Z,19.00
2018-11-06T11:03:51.816Z,17.40
2018-11-06T11:06:20.279Z,15.27
2018-11-06T11:08:48.689Z,17.83
2018-11-06T11:11:17.146Z,13.17
2018-11-06T11:13:45.571Z,21.27
2018-11-06T11:16:13.994Z,17.90
2018-11-06T11:18:42.411Z,15.63
2018-11-06T11:21:10.843Z,20.67
2018-11-06T11:23:39.448Z,21.40
2018-11-06T11:26:07.875Z,21.30
2018-11-06T11:28:36.386Z,17.57
2018-11-06T11:31:05.289Z,17.37
2018-11-06T11:33:33.731Z,16.73
2018-11-06T11:36:02.163Z,12.37
2018-11-06T11:38:30.680Z,13.27
2018-11-06T11:40:59.112Z,14.63
2018-11-06T11:43:27.534Z,12.27
2018-11-06T11:45:56.104Z,12.80
2018-11-06T11:48:24.422Z,11.47
2018-11-06T11:50:52.850Z,11.43
2018-11-06T11:53:21.300Z,10.43
2018-11-06T11:55:49.710Z,13.77
2018-11-06T11:58:18.156Z,12.00
2018-11-06T12:00:46.639Z,8.37
2018-11-06T12:03:15.083Z,10.07
2018-11-06T12:05:43.506Z,10.73
2018-11-06T12:08:11.946Z,8.37
2018-11-06T12:10:40.398Z,5.83
2018-11-06T12:13:08.825Z,4.47
2018-11-06T12:15:37.267Z,8.47
2018-11-06T12:18:05.707Z,7.83
2018-11-06T12:20:34.131Z,7.93
2018-11-06T12:23:02.561Z,6.37
2018-11-06T12:25:31.158Z,5.10
2018-11-06T12:27:59.468Z,5.13
2018-11-06T12:30:28.535Z,4.13
2018-11-06T12:32:56.954Z,4.13
2018-11-06T12:35:25.425Z,7.47
2018-11-06T12:37:53.833Z,5.00
2018-11-06T12:40:22.297Z,4.67
2018-11-06T12:42:50.756Z,7.23
2018-11-06T12:45:19.153Z,12.50
2018-11-06T12:47:47.643Z,4.43
2018-11-06T12:50:16.186Z,4.97
2018-11-06T12:52:44.595Z,7.50
2018-11-06T12:55:14.278Z,7.70
2018-11-06T12:57:42.734Z,6.43
2018-11-06T13:00:15.558Z,8.30
2018-11-06T13:02:43.978Z,5.13
2018-11-06T13:05:12.406Z,5.47
2018-11-06T13:07:41.799Z,6.37
2018-11-06T13:10:11.103Z,4.53
2018-11-06T13:12:39.878Z,4.23
2018-11-06T13:15:08.495Z,4.27
2018-11-06T13:17:37.479Z,5.40
2018-11-06T13:20:07.796Z,4.40
2018-11-06T13:22:36.260Z,12.30
2018-11-06T13:25:05.333Z,6.63
2018-11-06T13:27:33.733Z,5.77
2018-11-06T13:30:02.188Z,5.93
2018-11-06T13:32:30.678Z,4.30
2018-11-06T13:34:59.070Z,5.13
2018-11-06T13:37:27.498Z,9.43
2018-11-06T13:39:55.917Z,8.27
2018-11-06T13:42:24.455Z,6.23
2018-11-06T13:44:53.261Z,7.63
2018-11-06T13:47:21.303Z,4.73
2018-11-06T13:49:49.739Z,6.40
2018-11-06T13:52:18.266Z,5.93
2018-11-06T13:54:46.627Z,7.40
2018-11-06T13:57:15.053Z,5.57
2018-11-06T13:59:43.474Z,4.57
2018-11-06T14:02:11.917Z,6.70
2018-11-06T14:04:41.212Z,7.47
2018-11-06T14:07:09.803Z,6.40
2018-11-06T14:09:38.255Z,12.90
2018-11-06T14:12:06.697Z,5.83
2018-11-06T14:14:35.163Z,7.67
2018-11-06T14:17:03.675Z,5.93
2018-11-06T14:19:32.155Z,4.27
2018-11-06T14:22:00.616Z,5.80
2018-11-06T14:24:29.046Z,8.20
2018-11-06T14:26:57.520Z,8.97
2018-11-06T14:29:25.955Z,8.63
2018-11-06T14:31:54.387Z,7.07
2018-11-06T14:34:22.785Z,9.77
2018-11-06T14:36:51.232Z,6.93
2018-11-06T14:39:19.675Z,8.77
2018-11-06T14:41:48.116Z,7.30
2018-11-06T14:44:16.567Z,6.57
2018-11-06T14:46:44.993Z,6.90
2018-11-06T14:49:13.506Z,4.40
2018-11-06T14:51:41.921Z,7.73
2018-11-06T14:54:10.317Z,8.33
2018-11-06T14:56:38.783Z,5.73
2018-11-06T14:59:07.705Z,6.87
2018-11-06T15:01:36.150Z,10.10
2018-11-06T15:04:04.636Z,6.03
2018-11-06T15:06:33.179Z,8.67
2018-11-06T15:09:01.667Z,8.27
2018-11-06T15:11:30.141Z,10.33
2018-11-06T15:13:58.662Z,5.93
2018-11-06T15:16:27.080Z,7.13
2018-11-06T15:18:55.524Z,5.83
2018-11-06T15:21:23.952Z,9.57
2018-11-06T15:23:52.470Z,12.03
2018-11-06T15:26:20.941Z,11.30
2018-11-06T15:28:49.337Z,12.10
2018-11-06T15:31:17.928Z,12.73
2018-11-06T15:33:46.358Z,9.23
2018-11-06T15:36:14.927Z,10.17
2018-11-06T15:38:43.339Z,9.53
2018-11-06T15:41:11.899Z,6.87
2018-11-06T15:43:40.224Z,12.00
2018-11-06T15:46:08.642Z,9.60
2018-11-06T15:48:37.192Z,11.33
2018-11-06T15:51:05.673Z,4.87
2018-11-06T15:53:34.093Z,11.23
2018-11-06T15:56:02.525Z,11.17
2018-11-06T15:58:31.294Z,6.80
2018-11-06T16:00:59.743Z,5.57
2018-11-06T16:03:28.163Z,7.93
2018-11-06T16:05:56.590Z,6.93
2018-11-06T16:08:25.224Z,9.33
2018-11-06T16:10:53.492Z,10.43
2018-11-06T16:13:21.892Z,6.93
2018-11-06T16:15:53.273Z,10.73
2018-11-06T16:18:21.721Z,9.27
2018-11-06T16:20:50.144Z,10.30
2018-11-06T16:23:18.613Z,7.53
2018-11-06T16:25:47.080Z,9.47
2018-11-06T16:28:15.498Z,7.50
2018-11-06T16:30:43.917Z,12.33
2018-11-06T16:33:12.386Z,8.43
2018-11-06T16:35:40.798Z,11.60
2018-11-06T16:38:09.385Z,10.73
2018-11-06T16:40:37.850Z,7.10
2018-11-06T16:43:06.464Z,12.10
2018-11-06T16:45:34.901Z,7.93
2018-11-06T16:48:03.377Z,10.17
2018-11-06T16:50:31.838Z,8.30
2018-11-06T16:53:00.272Z,9.77
2018-11-06T16:55:28.770Z,11.60
2018-11-06T16:57:57.298Z,8.33
2018-11-06T17:00:27.031Z,8.57
2018-11-06T17:02:55.417Z,10.50
2018-11-06T17:05:24.583Z,11.43
2018-11-06T17:07:53.062Z,10.90
2018-11-06T17:10:21.716Z,9.87
2018-11-06T17:12:50.211Z,10.83
2018-11-06T17:15:20.836Z,10.40
2018-11-06T17:17:50.331Z,9.60
2018-11-06T17:20:19.164Z,16.60
2018-11-06T17:22:47.679Z,17.80
2018-11-06T17:25:17.522Z,12.10
2018-11-06T17:27:45.954Z,11.53
2018-11-06T17:30:16.690Z,13.23
2018-11-06T17:32:45.316Z,15.60
2018-11-06T17:35:15.354Z,11.33
2018-11-06T17:37:43.810Z,11.73
2018-11-06T17:40:14.670Z,10.37
2018-11-06T17:42:43.443Z,11.60
2018-11-06T17:45:14.722Z,10.23
2018-11-06T17:47:43.471Z,12.53
2018-11-06T17:50:13.517Z,9.47
2018-11-06T17:52:41.994Z,13.00
2018-11-06T17:55:16.905Z,13.03
2018-11-06T17:57:45.362Z,10.53
2018-11-06T18:00:18.798Z,12.03
2018-11-06T18:02:47.651Z,12.53
2018-11-06T18:05:16.976Z,11.27
2018-11-06T18:07:45.549Z,11.67
2018-11-06T18:10:17.392Z,10.80
2018-11-06T18:12:45.999Z,15.20
2018-11-06T18:15:14.633Z,11.77
2018-11-06T18:17:43.490Z,13.83
2018-11-06T18:20:12.972Z,14.37
2018-11-06T18:22:42.221Z,16.60
2018-11-06T18:25:12.030Z,15.03
2018-11-06T18:27:40.627Z,12.43
2018-11-06T18:30:15.610Z,13.90
2018-11-06T18:32:44.278Z,15.03
2018-11-06T18:35:13.873Z,15.33
2018-11-06T18:37:42.398Z,13.37
2018-11-06T18:40:13.705Z,15.37
2018-11-06T18:42:42.800Z,13.43
2018-11-06T18:45:11.310Z,11.87
2018-11-06T18:47:39.863Z,11.97
2018-11-06T18:50:10.398Z,10.77
2018-11-06T18:52:38.903Z,11.33
2018-11-06T18:55:07.762Z,12.50
2018-11-06T18:57:36.823Z,10.50
2018-11-06T19:00:07.565Z,21.30
2018-11-06T19:02:36.107Z,9.37
2018-11-06T19:05:04.681Z,9.53
2018-11-06T19:07:33.172Z,14.00
2018-11-06T19:10:01.658Z,15.97
2018-11-06T19:12:30.149Z,10.83
2018-11-06T19:14:58.619Z,8.77
2018-11-06T19:17:27.333Z,8.83
2018-11-06T19:19:55.820Z,7.53
2018-11-06T19:22:24.374Z,7.07
2018-11-06T19:24:52.857Z,8.23
2018-11-06T19:27:21.357Z,5.73
2018-11-06T19:29:49.875Z,6.47
2018-11-06T19:32:18.397Z,6.17
2018-11-06T19:34:46.883Z,7.37
2018-11-06T19:37:15.354Z,5.30
2018-11-06T19:39:43.834Z,5.87
2018-11-06T19:42:12.313Z,6.13
2018-11-06T19:44:40.931Z,5.13
2018-11-06T19:47:09.489Z,6.47
2018-11-06T19:49:38.023Z,4.67
2018-11-06T19:52:06.569Z,4.27
2018-11-06T19:54:35.059Z,4.87
2018-11-06T19:57:03.535Z,4.73
2018-11-06T19:59:32.025Z,4.30
2018-11-06T20:02:00.493Z,5.97
2018-11-06T20:04:29.005Z,4.03
2018-11-06T20:06:57.499Z,4.23
2018-11-06T20:09:25.986Z,4.00
2018-11-06T20:11:54.492Z,8.83
2018-11-06T20:14:22.904Z,6.30
2018-11-06T20:16:51.455Z,4.00
2018-11-06T20:19:19.952Z,6.27
2018-11-06T20:21:48.417Z,5.00
2018-11-06T20:24:16.872Z,4.07
2018-11-06T20:26:45.384Z,7.77
2018-11-06T20:29:13.820Z,6.30
2018-11-06T20:31:42.243Z,7.57
2018-11-06T20:34:10.772Z,5.10
2018-11-06T20:36:39.326Z,4.40
2018-11-06T20:39:09.120Z,7.80
2018-11-06T20:41:37.613Z,5.50
2018-11-06T20:44:06.233Z,4.40
2018-11-06T20:46:35.075Z,4.23
2018-11-06T20:49:04.082Z,5.50
2018-11-06T20:51:32.579Z,6.60
2018-11-06T20:54:01.019Z,7.90
2018-11-06T20:56:29.492Z,4.73
2018-11-06T20:58:57.921Z,7.20
2018-11-06T21:01:26.399Z,3.80
2018-11-06T21:03:54.841Z,7.27
2018-11-06T21:06:23.351Z,3.50
2018-11-06T21:08:51.828Z,7.53
2018-11-06T21:11:20.306Z,7.50
2018-11-06T21:13:48.787Z,6.00
2018-11-06T21:16:18.075Z,4.03
2018-11-06T21:18:46.585Z,5.17
2018-11-06T21:21:15.289Z,7.00
2018-11-06T21:23:43.820Z,8.57
2018-11-06T21:26:12.464Z,7.13
2018-11-06T21:28:40.753Z,6.53
2018-11-06T21:31:09.264Z,6.37
2018-11-06T21:33:37.740Z,5.73
2018-11-06T21:36:06.193Z,5.33
2018-11-06T21:38:34.674Z,7.33
2018-11-06T21:41:03.158Z,4.93
2018-11-06T21:43:31.605Z,6.00
2018-11-06T21:46:00.096Z,4.60
2018-11-06T21:48:28.599Z,6.70
2018-11-06T21:50:57.013Z,4.57
2018-11-06T21:53:25.437Z,4.97
2018-11-06T21:55:53.890Z,5.00
2018-11-06T21:58:22.313Z,4.20
2018-11-06T22:00:50.863Z,6.17
2018-11-06T22:03:19.250Z,5.53
2018-11-06T22:05:47.690Z,5.63
2018-11-06T22:08:16.136Z,5.10
2018-11-06T22:10:44.590Z,4.50
2018-11-06T22:13:13.051Z,6.93
2018-11-06T22:15:41.484Z,5.97
2018-11-06T22:18:09.905Z,5.57
2018-11-06T22:20:38.352Z,4.73
2018-11-06T22:23:06.844Z,4.50
2018-11-06T22:25:35.272Z,3.90
2018-11-06T22:28:03.716Z,3.87
2018-11-06T22:30:32.130Z,3.27
2018-11-06T22:33:00.597Z,5.77
2018-11-06T22:35:29.056Z,3.30
2018-11-06T22:37:57.542Z,3.77
2018-11-06T22:40:25.947Z,5.77
2018-11-06T22:42:54.408Z,4.67
2018-11-06T22:45:22.825Z,3.37
2018-11-06T22:47:51.263Z,3.97
2018-11-06T22:50:19.650Z,4.80
2018-11-06T22:52:48.768Z,4.33
2018-11-06T22:55:17.551Z,5.23
2018-11-06T22:57:45.971Z,5.90
2018-11-06T23:00:22.821Z,3.50
2018-11-06T23:02:51.287Z,4.00
2018-11-06T23:05:19.745Z,2.77
2018-11-06T23:07:53.526Z,5.57
2018-11-06T23:10:21.951Z,8.53
2018-11-06T23:12:56.962Z,4.10
2018-11-06T23:15:25.374Z,4.30
2018-11-06T23:17:53.833Z,4.13
2018-11-06T23:20:22.313Z,2.97
2018-11-06T23:22:50.734Z,3.53
2018-11-06T23:25:19.137Z,5.23
2018-11-06T23:27:47.559Z,2.73
2018-11-06T23:30:15.973Z,3.50
2018-11-06T23:32:44.436Z,3.50
2018-11-06T23:35:12.863Z,3.83
2018-11-06T23:37:41.290Z,3.33
2018-11-06T23:40:10.248Z,7.63
2018-11-06T23:42:38.989Z,3.70
2018-11-06T23:45:07.951Z,5.47
2018-11-06T23:47:36.363Z,4.07
2018-11-06T23:50:04.881Z,3.10
2018-11-06T23:52:33.316Z,7.53
2018-11-06T23:55:01.736Z,3.73
2018-11-06T23:57:30.628Z,2.73
2018-11-06T23:59:59.830Z,3.40
